Watersound, Florida
Current Conditions -  °F | °C
As of 8:53 PM on Friday 24 Oct 2014 (Local Time) from KECP Reporting Station
Clear Clear  
Wind Chill: 55°   Ceiling: Unl
Heat Index: 55°   Visibility: 10mi
Dew Point: 49°   Wind: 3mph
Humidity: 80%   Direction: 310°NW
Pressure: 30.02"   Gusts: NA
Location:  30.2534°N, 85.9486°W
Report Text: KECP 250153Z 31003KT 10SM CLR 13/09 A3002 RMK AO2 SLP177 T01280094 $
Loading
Personal Weather Stations






























Interactive Weather Map
Tropical Storm Tracking
New forecast layout! Learn more

10-Day Weather Forecast

Advertisements
Track Severe Weather on mobile